Aérodrome :
LOGIN :

S'inscrire | Disclaimer

   EN    FR    IT 

 










Légende :    VFR   VFR Marginal   IFR   IFR Intensif   IFR Très Intensif
Visi : 
Plafond : 
>= 8 km
>= 3000ft
5 à 8 km
1000 à 3000 ft
1500m à 5 km
500 à 1000 ft
800 à 1500m
200 à 500 ft
< 800m
< 200 ft
Symboles :   Orages  Brouillard  Fortes neiges  Fortes précipitations  Vent > 20 kt
SIGMETs :   Divers  Orages  Givrage  Turbulence  Onde Orograph.  Cendres Volcan.







- Altitude de l'aérodrome : 1504 ft
- Code IATA : PNA


LEPP - Noain Pamplona

DERNIER METAR :
  • 240830Z 06003KT 010V090 CAVOK 26/15 Q1018

METARs EXPIRÉS :
  • 240800Z VRB02KT CAVOK 24/15 Q1018
  • 240730Z 00000KT CAVOK 24/16 Q1018
  • 240700Z 00000KT CAVOK 22/16 Q1017
  • 240630Z 17002KT CAVOK 21/16 Q1017
  • 240600Z 16003KT CAVOK 20/16 Q1017

TAF TAF LEPP
Valide du 24 à 09h jusqu'au 25 à 09h UTC


240800Z 2409/2509 16009KT 9999 FEW040 TX39/2415Z TN19/2506Z
PROB40
TEMPO 2412/2424 SHRA TS SCT040CB
Pas de NOTAMs connus pour ce terrain.



MET'MAP, la Météo Aéronautique d'un coup d'oeil ! - Copyright ORBIFLY Décembre 2007 - Disclaimer

ORBIFLY MET'MAP TEAM :

Programmation & Développement : Alexandra Zaïnal
Conception & Développement : Baudouin d'Aumeries
Co-Programmation & Développement : Marc-Olivier Méhu
Soutien technique & logistique : Manuel Goepfert

Contact : metmap@orbifly.com




SOURCES & CREDITS :

   NOAA